Time;durP1;ratioP1;P1;durP2;ratioP2;P2;SDS_P1;SDS_P2;PMS_P1;PMS_P2;Temp;Humidity;BMP_temperature;BMP_pressure;BME280_temperature;BME280_humidity;BME280_pressure;Samples;Min_cycle;Max_cycle;Signal;HPM_P1;HPM_P2
2021/06/21 00:00:12;;;;;;;15.60;12.47;;;;;;;22.37;64.94;100267.30;1696563;81;26543;-77
2021/06/21 00:02:43;;;;;;;12.98;11.65;;;;;;;22.35;65.27;100261.86;1764994;79;25271;-77
2021/06/21 00:05:13;;;;;;;13.30;10.95;;;;;;;22.33;65.58;100251.73;1744375;81;27580;-78
2021/06/21 00:07:40;;;;;;;13.70;11.85;;;;;;;22.31;65.41;100253.91;1751378;81;26058;-77
2021/06/21 00:13:44;;;;;;;14.13;11.12;;;;;;;22.20;65.88;100244.36;1755415;79;25963;-77
2021/06/21 00:16:12;;;;;;;13.15;11.78;;;;;;;22.13;66.01;100239.71;1767435;78;25698;-77
2021/06/21 00:18:39;;;;;;;15.65;12.47;;;;;;;22.13;66.03;100242.44;1769498;80;28262;-77
2021/06/21 00:21:06;;;;;;;13.70;11.90;;;;;;;22.12;66.13;100240.81;1686941;81;26521;-78
2021/06/21 00:23:33;;;;;;;12.53;10.68;;;;;;;22.10;66.24;100243.53;1726558;81;25897;-77
2021/06/21 00:26:00;;;;;;;20.27;13.30;;;;;;;22.09;66.40;100246.00;1749752;81;25911;-77
2021/06/21 00:28:27;;;;;;;13.32;12.10;;;;;;;22.07;66.55;100240.80;1748576;81;25891;-76
2021/06/21 00:30:54;;;;;;;12.98;11.60;;;;;;;22.04;66.76;100236.44;1703920;81;27552;-78
2021/06/21 00:33:21;;;;;;;14.35;12.47;;;;;;;22.02;66.82;100235.36;1710725;81;25811;-77
2021/06/21 00:35:48;;;;;;;12.33;11.12;;;;;;;22.03;66.87;100232.06;1749472;81;25716;-78
2021/06/21 00:38:15;;;;;;;12.78;11.57;;;;;;;22.01;67.03;100225.52;1739777;81;26376;-77
2021/06/21 00:40:42;;;;;;;14.35;12.68;;;;;;;22.00;67.10;100226.63;1675092;82;26097;-76
2021/06/21 00:43:09;;;;;;;16.50;12.28;;;;;;;21.98;67.26;100226.62;1707156;81;27299;-76
2021/06/21 00:45:37;;;;;;;13.88;12.13;;;;;;;21.95;67.38;100223.05;1737283;81;25846;-77
2021/06/21 00:48:05;;;;;;;14.00;12.40;;;;;;;21.95;67.44;100220.33;1737577;81;25764;-77
2021/06/21 00:50:32;;;;;;;15.35;13.28;;;;;;;21.94;67.27;100218.70;1680653;83;25826;-77
2021/06/21 00:53:01;;;;;;;17.40;12.75;;;;;;;21.96;67.55;100221.41;1709714;81;25770;-76
2021/06/21 00:55:30;;;;;;;13.58;12.28;;;;;;;21.91;67.54;100217.33;1731111;82;28205;-77
2021/06/21 00:57:58;;;;;;;15.85;12.82;;;;;;;21.88;67.79;100219.22;1731375;80;26435;-77
2021/06/21 01:00:28;;;;;;;15.48;12.25;;;;;;;21.86;67.88;100215.95;1680335;83;25730;-77
2021/06/21 01:02:57;;;;;;;13.08;11.88;;;;;;;21.80;68.03;100220.26;1699093;82;25793;-77
2021/06/21 01:05:27;;;;;;;24.15;18.52;;;;;;;21.80;68.03;100220.26;1727454;82;25809;-77
2021/06/21 01:07:54;;;;;;;27.52;18.12;;;;;;;21.78;67.97;100215.09;1728624;82;28181;-77
2021/06/21 01:10:25;;;;;;;15.30;13.78;;;;;;;21.73;68.09;100216.42;1699898;82;25790;-76
2021/06/21 01:13:00;;;;;;;16.93;13.08;;;;;;;21.65;68.39;100221.05;1713536;81;25777;-76
2021/06/21 01:15:31;;;;;;;14.47;12.23;;;;;;;21.62;68.52;100213.95;1779837;80;26573;-77
2021/06/21 01:18:07;;;;;;;15.25;13.83;;;;;;;21.56;68.38;100217.73;1750703;80;25795;-77
2021/06/21 01:21:00;;;;;;;15.45;13.95;;;;;;;;;;1737093;79;27551;-77
2021/06/21 01:24:05;;;;;;;13.85;12.60;;;;;;;21.41;68.66;100205.70;1723177;81;25813;-76
2021/06/21 01:26:46;;;;;;;16.82;13.88;;;;;;;21.37;68.83;100202.41;1739936;81;25777;-78
2021/06/21 01:29:50;;;;;;;16.17;14.13;;;;;;;21.32;69.14;100207.30;1734540;82;25957;-76
2021/06/21 01:32:40;;;;;;;17.10;15.32;;;;;;;21.31;69.44;100207.56;1736678;79;25854;-77
2021/06/21 01:35:19;;;;;;;16.57;14.70;;;;;;;21.28;69.39;100208.09;1714767;82;28178;-77
2021/06/21 01:37:48;;;;;;;17.05;15.25;;;;;;;21.22;69.43;100203.17;1748055;81;26582;-77
2021/06/21 01:40:19;;;;;;;16.27;14.53;;;;;;;21.19;69.71;100206.98;1708379;82;25775;-76
2021/06/21 01:42:54;;;;;;;16.93;15.23;;;;;;;21.20;69.85;100199.07;1708644;82;26353;-77
2021/06/21 01:45:22;;;;;;;16.55;14.85;;;;;;;21.21;69.79;100196.64;1713027;82;25793;-77
2021/06/21 01:47:52;;;;;;;16.32;14.73;;;;;;;21.19;69.67;100182.47;1734836;80;27560;-77
2021/06/21 01:50:23;;;;;;;16.10;14.50;;;;;;;21.13;69.47;100177.52;1737195;82;25729;-78
2021/06/21 01:53:07;;;;;;;17.75;15.98;;;;;;;21.04;69.56;100181.03;1708499;82;25841;-77
2021/06/21 01:55:37;;;;;;;16.42;14.75;;;;;;;21.01;69.71;100176.90;1735164;82;26593;-77
2021/06/21 01:58:06;;;;;;;17.82;16.05;;;;;;;20.98;69.82;100174.70;1734184;80;25775;-77
2021/06/21 02:00:33;;;;;;;19.17;15.43;;;;;;;20.97;70.11;100177.16;1737248;82;28367;-77
2021/06/21 02:03:01;;;;;;;18.30;16.48;;;;;;;20.97;70.25;100169.52;1708458;82;25944;-77
2021/06/21 02:05:31;;;;;;;19.30;16.25;;;;;;;20.96;70.42;100167.87;1723750;82;25765;-76
2021/06/21 02:07:58;;;;;;;17.93;15.80;;;;;;;20.95;70.62;100165.71;1735432;82;25855;-77
2021/06/21 02:10:28;;;;;;;18.07;16.37;;;;;;;20.93;70.65;100163.80;1736964;81;25785;-76
2021/06/21 02:12:55;;;;;;;23.32;16.95;;;;;;;20.90;70.58;100168.40;1733673;80;27940;-77
2021/06/21 02:15:23;;;;;;;19.15;17.07;;;;;;;20.87;70.64;100166.19;1698950;82;25869;-77
2021/06/21 02:17:51;;;;;;;17.80;16.07;;;;;;;20.87;70.70;100163.47;1756328;81;25780;-77
2021/06/21 02:20:20;;;;;;;17.67;15.38;;;;;;;20.85;70.66;100161.55;1745489;82;26404;-77
2021/06/21 02:22:48;;;;;;;18.57;16.80;;;;;;;20.80;70.49;100162.08;1740902;81;25881;-77
2021/06/21 02:25:16;;;;;;;18.10;16.12;;;;;;;20.78;70.62;100156.08;1780590;78;27669;-77
2021/06/21 02:27:45;;;;;;;18.48;16.75;;;;;;;20.74;70.61;100147.07;1781014;80;26215;-77
2021/06/21 02:30:15;;;;;;;18.12;16.27;;;;;;;20.74;70.95;100144.91;1753078;79;25755;-77
2021/06/21 02:32:46;;;;;;;20.00;17.15;;;;;;;20.74;70.98;100144.91;1717626;81;26421;-77
2021/06/21 02:35:16;;;;;;;20.90;17.25;;;;;;;20.71;71.15;100146.25;1729976;81;25748;-77
2021/06/21 02:37:44;;;;;;;19.07;17.17;;;;;;;20.70;71.44;100150.05;1753329;80;28195;-76
2021/06/21 02:40:14;;;;;;;19.20;17.27;;;;;;;20.69;71.42;100155.77;1752845;81;25843;-77
2021/06/21 02:42:42;;;;;;;;;;;;;;;20.69;71.78;100163.39;1719986;81;25666;-77
2021/06/21 02:45:10;;;;;;;18.35;16.50;;;;;;;20.67;72.08;100161.48;1780261;80;25866;-77
2021/06/21 02:47:39;;;;;;;18.85;17.05;;;;;;;20.67;71.91;100166.09;1753318;81;25793;-76
2021/06/21 02:50:08;;;;;;;18.67;16.87;;;;;;;20.65;71.83;100163.64;1780829;80;28202;-77
2021/06/21 02:53:09;;;;;;;17.32;15.50;;;;;;;20.62;71.84;100161.44;1754917;80;25707;-76
2021/06/21 02:55:52;;;;;;;;;;;;;;;20.61;71.65;100160.34;1783307;79;25786;-77
2021/06/21 02:58:29;;;;;;;17.55;15.63;;;;;;;20.56;71.86;100161.66;1753167;79;26582;-77
2021/06/21 03:01:00;;;;;;;19.00;17.20;;;;;;;20.54;71.86;100161.11;1740964;81;25959;-77
2021/06/21 03:03:30;;;;;;;;;;;;;;;20.55;71.99;100158.12;1749497;81;28143;-77
2021/06/21 03:05:59;;;;;;;18.10;16.35;;;;;;;20.58;72.36;100157.61;1686445;83;26590;-77
2021/06/21 03:08:29;;;;;;;19.32;17.27;;;;;;;20.59;72.51;100153.78;1734705;80;25775;-77
2021/06/21 03:10:58;;;;;;;20.32;18.02;;;;;;;20.60;72.54;100152.72;1671881;82;26276;-77
2021/06/21 03:13:27;;;;;;;20.17;18.10;;;;;;;20.61;72.76;100160.34;1728455;82;25722;-78
2021/06/21 03:15:56;;;;;;;20.62;18.45;;;;;;;20.61;72.78;100159.81;1725361;83;27585;-77
2021/06/21 03:18:24;;;;;;;20.65;18.77;;;;;;;20.63;73.02;100169.89;1717197;82;25918;-77
2021/06/21 03:20:58;;;;;;;20.35;18.17;;;;;;;20.66;73.14;100169.34;1720481;81;25791;-78
2021/06/21 03:23:29;;;;;;;19.25;17.32;;;;;;;20.71;73.14;100169.39;1717777;82;25841;-76
2021/06/21 03:26:00;;;;;;;18.62;16.93;;;;;;;20.78;73.01;100169.70;1731367;82;25801;-76
2021/06/21 03:28:28;;;;;;;;;;;;;;;20.86;73.02;100167.30;1715162;82;27438;-76
2021/06/21 03:31:05;;;;;;;19.55;17.00;;;;;;;20.93;73.21;100172.50;1726571;82;25698;-76
2021/06/21 03:33:34;;;;;;;18.55;16.52;;;;;;;21.01;73.14;100178.80;1725826;81;25790;-75
2021/06/21 03:36:01;;;;;;;19.45;17.45;;;;;;;21.15;73.23;100191.69;1726286;82;25854;-76
2021/06/21 03:38:30;;;;;;;21.05;16.87;;;;;;;21.28;73.14;100188.48;1679018;82;25847;-76
2021/06/21 03:41:01;;;;;;;18.65;16.95;;;;;;;21.36;72.97;100196.13;1746141;81;28245;-76
2021/06/21 03:43:30;;;;;;;18.05;16.25;;;;;;;21.47;72.99;100194.27;1776609;80;25877;-76
2021/06/21 03:46:00;;;;;;;19.42;17.23;;;;;;;21.56;72.83;100201.38;1739828;82;26274;-77
2021/06/21 03:48:28;;;;;;;18.90;16.93;;;;;;;21.63;72.66;100201.41;1710907;81;25879;-76
2021/06/21 03:50:57;;;;;;;19.40;17.40;;;;;;;21.70;72.72;100199.27;1703947;83;26208;-76
2021/06/21 03:53:27;;;;;;;19.62;17.45;;;;;;;21.77;72.64;100197.08;1749740;81;27426;-76
2021/06/21 03:55:54;;;;;;;18.93;16.80;;;;;;;21.83;72.65;100202.87;1723310;83;25807;-76
2021/06/21 03:58:22;;;;;;;20.05;17.07;;;;;;;21.88;72.71;100196.05;1724492;82;26502;-76
2021/06/21 04:00:49;;;;;;;21.90;18.42;;;;;;;21.94;72.70;100199.05;1702305;83;25957;-77
2021/06/21 04:03:16;;;;;;;18.42;16.55;;;;;;;22.01;72.80;100189.23;1738602;79;25977;-76
2021/06/21 04:05:44;;;;;;;17.92;16.20;;;;;;;22.06;72.83;100184.62;1746972;81;27610;-77
2021/06/21 04:08:14;;;;;;;23.12;15.85;;;;;;;22.11;72.82;100176.42;1720448;81;25783;-76
2021/06/21 04:10:42;;;;;;;20.27;17.03;;;;;;;22.21;72.76;100172.89;1722300;81;26421;-76
2021/06/21 04:13:10;;;;;;;18.57;14.93;;;;;;;22.30;72.89;100169.89;1738558;81;25830;-76
2021/06/21 04:15:37;;;;;;;20.45;13.18;;;;;;;22.38;72.89;100165.78;1753330;81;26427;-76
2021/06/21 04:18:11;;;;;;;14.95;12.37;;;;;;;22.48;72.84;100158.39;1716443;80;28182;-76
2021/06/21 04:20:40;;;;;;;14.85;12.55;;;;;;;22.56;72.54;100156.47;1754314;81;26469;-76
2021/06/21 04:23:08;;;;;;;14.93;12.07;;;;;;;22.69;72.39;100157.86;1780209;80;26425;-76
2021/06/21 04:25:36;;;;;;;12.35;11.05;;;;;;;22.80;72.15;100152.63;1753095;81;26475;-76
2021/06/21 04:28:05;;;;;;;12.40;10.98;;;;;;;22.87;71.87;100155.89;1754923;80;25737;-76
2021/06/21 04:30:32;;;;;;;15.15;10.68;;;;;;;22.93;71.59;100156.96;1780453;80;28261;-76
2021/06/21 04:32:59;;;;;;;14.90;10.13;;;;;;;22.99;71.45;100161.30;1756817;81;25916;-76
2021/06/21 04:35:27;;;;;;;18.20;11.25;;;;;;;23.11;71.22;100170.56;1745144;81;25729;-76
2021/06/21 04:37:55;;;;;;;13.38;10.90;;;;;;;23.21;71.17;100166.95;1702439;82;26513;-77
2021/06/21 04:40:27;;;;;;;12.65;11.35;;;;;;;23.32;70.91;100163.91;1724396;82;25985;-76
2021/06/21 04:42:54;;;;;;;12.90;11.15;;;;;;;23.44;70.49;100168.52;1774347;80;28385;-77
2021/06/21 04:45:22;;;;;;;15.50;10.60;;;;;;;23.53;70.23;100176.95;1729680;79;25745;-76
2021/06/21 04:47:49;;;;;;;15.80;10.08;;;;;;;23.63;70.13;100179.07;1707343;82;25893;-76
2021/06/21 04:50:18;;;;;;;16.85;11.88;;;;;;;23.71;69.66;100174.39;1730880;82;25954;-76
2021/06/21 04:52:48;;;;;;;13.83;10.75;;;;;;;23.81;69.10;100180.34;1756490;81;25398;-76
2021/06/21 04:55:18;;;;;;;14.87;11.63;;;;;;;23.89;68.92;100183.83;1745272;80;27447;-77
2021/06/21 04:57:46;;;;;;;17.55;11.08;;;;;;;23.97;68.79;100176.95;1726128;82;25794;-75
2021/06/21 05:00:17;;;;;;;13.20;10.95;;;;;;;24.03;68.08;100185.38;1730815;81;25824;-76
2021/06/21 05:02:46;;;;;;;14.13;11.33;;;;;;;24.08;68.09;100180.71;1774906;80;26611;-77
2021/06/21 05:05:14;;;;;;;13.22;10.25;;;;;;;24.18;68.41;100182.56;1729995;82;26100;-77
2021/06/21 05:07:44;;;;;;;12.65;10.23;;;;;;;24.24;67.52;100183.61;1702960;80;27385;-76
2021/06/21 05:10:12;;;;;;;14.95;10.78;;;;;;;24.33;67.51;100179.70;1773819;80;26265;-76
2021/06/21 05:12:40;;;;;;;11.83;10.65;;;;;;;24.38;66.97;100175.53;1753610;80;25812;-77
2021/06/21 05:15:08;;;;;;;11.25;10.10;;;;;;;24.42;66.65;100180.14;1715242;83;26406;-76
2021/06/21 05:17:35;;;;;;;13.10;9.98;;;;;;;24.48;66.72;100181.76;1725035;83;25855;-76
2021/06/21 05:20:04;;;;;;;12.20;9.83;;;;;;;24.52;66.46;100186.09;1728515;81;27521;-77
2021/06/21 05:22:32;;;;;;;13.32;10.20;;;;;;;24.54;65.88;100192.09;1723655;81;25810;-76
2021/06/21 05:25:00;;;;;;;15.43;10.75;;;;;;;24.53;66.00;100187.17;1749776;81;25777;-76
2021/06/21 05:27:30;;;;;;;13.25;9.65;;;;;;;24.59;66.00;100192.61;1700567;83;25927;-76
2021/06/21 05:29:58;;;;;;;16.30;10.20;;;;;;;24.64;65.79;100193.91;1728831;82;25334;-77
2021/06/21 05:32:25;;;;;;;14.50;10.05;;;;;;;24.70;65.59;100194.14;1723150;83;27597;-76
2021/06/21 05:34:52;;;;;;;11.85;9.10;;;;;;;24.77;65.43;100205.05;1749833;81;25879;-76
2021/06/21 05:37:20;;;;;;;11.83;9.48;;;;;;;24.82;65.58;100215.14;1723305;83;25787;-76
2021/06/21 05:39:47;;;;;;;10.25;8.93;;;;;;;24.89;65.15;100211.52;1728764;82;25834;-76
2021/06/21 05:42:16;;;;;;;20.30;9.95;;;;;;;24.96;65.19;100209.22;1723228;83;25731;-76
2021/06/21 05:44:42;;;;;;;12.47;9.05;;;;;;;25.06;64.68;100210.50;1700309;83;27567;-76
2021/06/21 05:47:09;;;;;;;9.60;8.30;;;;;;;25.15;64.59;100213.67;1724163;81;26353;-76
2021/06/21 05:49:36;;;;;;;10.58;8.40;;;;;;;25.22;64.21;100207.83;1723202;83;25789;-76
2021/06/21 05:52:04;;;;;;;17.02;8.65;;;;;;;25.31;63.75;100210.75;1723170;81;26538;-77
2021/06/21 05:54:32;;;;;;;9.73;8.73;;;;;;;25.34;63.18;100206.88;1749987;81;25749;-77
2021/06/21 05:56:59;;;;;;;10.32;8.15;;;;;;;25.39;63.18;100210.09;1724525;83;27460;-77
2021/06/21 05:59:26;;;;;;;9.68;8.35;;;;;;;25.45;63.55;100205.65;1728451;82;25911;-76
2021/06/21 06:01:53;;;;;;;11.00;8.78;;;;;;;25.55;63.17;100207.45;1700110;83;25782;-77
2021/06/21 06:04:20;;;;;;;10.03;8.38;;;;;;;25.60;63.11;100202.70;1749288;81;26540;-76
2021/06/21 06:06:47;;;;;;;9.85;8.85;;;;;;;25.67;62.88;100202.34;1724502;83;25841;-76
2021/06/21 06:09:14;;;;;;;15.98;7.80;;;;;;;25.74;63.30;100196.77;1728598;82;27367;-76
2021/06/21 06:11:41;;;;;;;12.60;8.10;;;;;;;25.85;63.51;100200.97;1700218;83;26588;-76
2021/06/21 06:14:08;;;;;;;14.03;8.23;;;;;;;25.91;62.86;100197.06;1739612;81;25787;-77
2021/06/21 06:16:35;;;;;;;16.42;8.08;;;;;;;26.01;62.85;100194.16;1685702;82;26486;-77
2021/06/21 06:19:02;;;;;;;11.97;7.78;;;;;;;26.06;61.33;100192.44;1709571;82;25776;-77
2021/06/21 06:21:30;;;;;;;12.43;7.75;;;;;;;26.08;62.21;100190.21;1709620;83;28318;-77
2021/06/21 06:23:58;;;;;;;12.07;7.10;;;;;;;26.14;61.75;100184.92;1709174;82;26570;-77
2021/06/21 06:26:25;;;;;;;13.15;7.58;;;;;;;26.21;61.62;100186.74;1686054;83;25865;-77
2021/06/21 06:28:52;;;;;;;12.53;8.00;;;;;;;26.27;62.30;100187.73;1734151;79;26290;-77
2021/06/21 06:31:19;;;;;;;13.98;7.17;;;;;;;26.35;62.23;100173.86;1710236;82;25776;-77
2021/06/21 06:33:47;;;;;;;12.70;6.90;;;;;;;26.41;61.55;100173.47;1734673;81;28269;-76
2021/06/21 06:36:14;;;;;;;9.63;7.33;;;;;;;26.48;61.46;100170.34;1662904;83;26130;-77
2021/06/21 06:38:41;;;;;;;11.95;6.95;;;;;;;26.53;61.40;100167.52;1709192;82;25842;-77
2021/06/21 06:41:09;;;;;;;10.18;7.47;;;;;;;26.58;61.59;100162.73;1710331;83;26495;-77
2021/06/21 06:43:36;;;;;;;16.75;7.55;;;;;;;26.64;61.43;100162.09;1734312;81;26507;-77
2021/06/21 06:46:03;;;;;;;15.48;7.28;;;;;;;26.72;61.48;100155.89;1685888;83;28220;-77
2021/06/21 06:48:30;;;;;;;13.32;6.60;;;;;;;26.77;61.37;100150.34;1709419;83;25791;-77
2021/06/21 06:51:00;;;;;;;7.85;6.40;;;;;;;26.84;61.38;100149.94;1709525;83;26169;-76
2021/06/21 06:53:39;;;;;;;7.92;6.37;;;;;;;26.92;61.46;100148.67;1734701;81;26053;-77
2021/06/21 06:58:51;;;;;;;8.40;6.40;;;;;;;27.04;60.30;100147.59;1734609;81;28090;-77
2021/06/21 07:01:18;;;;;;;11.83;6.40;;;;;;;27.07;59.62;100146.16;1710188;83;25791;-77
2021/06/21 07:03:51;;;;;;;9.85;5.83;;;;;;;27.09;59.96;100147.49;1734244;82;25861;-77
2021/06/21 07:06:19;;;;;;;15.88;6.00;;;;;;;27.16;59.90;100149.25;1685865;83;26627;-76
2021/06/21 07:08:46;;;;;;;10.38;5.65;;;;;;;27.24;60.33;100145.80;1734270;81;25834;-77
2021/06/21 07:11:15;;;;;;;19.30;5.67;;;;;;;27.33;59.29;100143.14;1710176;83;27518;-77
2021/06/21 07:13:43;;;;;;;15.53;5.58;;;;;;;27.37;59.38;100146.93;1756673;80;25873;-77
2021/06/21 07:16:10;;;;;;;15.55;5.08;;;;;;;27.44;58.96;100150.88;1754679;81;25766;-77
2021/06/21 07:18:37;;;;;;;17.20;4.87;;;;;;;27.50;58.59;100149.63;1754516;81;26516;-77
2021/06/21 07:21:05;;;;;;;12.55;5.35;;;;;;;27.57;58.03;100145.09;1753329;80;25820;-76
2021/06/21 07:23:32;;;;;;;22.80;5.25;;;;;;;27.63;58.13;100153.47;1754672;80;28193;-77
2021/06/21 07:25:59;;;;;;;16.25;4.90;;;;;;;27.70;57.52;100155.25;1754469;81;26542;-76
2021/06/21 07:28:26;;;;;;;13.53;4.45;;;;;;;27.75;56.58;100155.70;1780598;77;25813;-77
2021/06/21 07:30:53;;;;;;;14.65;3.55;;;;;;;27.80;57.28;100161.09;1753382;81;26401;-77
2021/06/21 07:33:20;;;;;;;16.40;4.95;;;;;;;27.83;55.41;100159.89;1754965;80;25809;-77
2021/06/21 07:35:47;;;;;;;14.18;4.08;;;;;;;27.86;55.52;100160.66;1780549;80;28308;-75
2021/06/21 07:38:14;;;;;;;11.55;3.80;;;;;;;27.92;56.31;100159.41;1754801;81;25870;-77
2021/06/21 07:40:41;;;;;;;21.07;3.98;;;;;;;27.97;54.84;100163.43;1753298;80;25711;-78
2021/06/21 07:43:08;;;;;;;20.30;3.92;;;;;;;28.01;54.36;100163.09;1780273;79;26498;-77
2021/06/21 07:45:35;;;;;;;15.50;3.33;;;;;;;28.10;54.78;100167.28;1754568;81;25832;-78
2021/06/21 07:48:03;;;;;;;16.10;3.33;;;;;;;28.15;53.91;100158.31;1754442;81;26903;-78
2021/06/21 07:50:31;;;;;;;15.20;3.83;;;;;;;28.19;53.22;100157.12;1753397;81;25767;-78
2021/06/21 07:52:58;;;;;;;15.80;3.00;;;;;;;28.18;52.67;100156.33;1780433;79;25758;-77
2021/06/21 07:55:27;;;;;;;14.15;3.40;;;;;;;28.25;52.79;100148.41;1754705;81;25927;-77
2021/06/21 07:57:56;;;;;;;11.03;3.15;;;;;;;28.33;52.19;100142.72;1780827;80;25818;-78
2021/06/21 08:00:26;;;;;;;13.28;3.30;;;;;;;28.39;52.53;100130.44;1753257;81;27446;-78
2021/06/21 08:02:54;;;;;;;;;;;;;;;28.45;52.20;100130.55;1757107;80;25863;-77
2021/06/21 08:05:23;;;;;;;15.78;3.20;;;;;;;28.52;52.89;100125.97;1767009;79;25874;-77
2021/06/21 08:07:51;;;;;;;19.27;3.77;;;;;;;28.59;52.00;100123.02;1753492;80;26316;-77
2021/06/21 08:10:18;;;;;;;8.08;2.60;;;;;;;28.65;51.57;100133.36;1753486;81;25936;-77
2021/06/21 08:12:45;;;;;;;10.80;2.85;;;;;;;28.72;51.51;100120.73;1728683;81;27609;-78
2021/06/21 08:15:14;;;;;;;18.75;3.05;;;;;;;28.82;50.68;100126.54;1724092;83;25766;-77
2021/06/21 08:17:42;;;;;;;15.48;3.00;;;;;;;28.87;50.16;100116.76;1723173;81;25298;-76
2021/06/21 08:20:11;;;;;;;14.58;3.00;;;;;;;28.93;51.14;100122.37;1723560;80;25778;-77
2021/06/21 08:22:38;;;;;;;23.73;3.40;;;;;;;29.00;50.92;100114.42;1700994;83;25827;-78
2021/06/21 08:25:09;;;;;;;16.87;3.98;;;;;;;29.06;49.79;100119.24;1725163;83;27468;-78
2021/06/21 08:27:36;;;;;;;;;;;;;;;29.09;49.78;100122.16;1725760;81;26288;-77
2021/06/21 08:30:06;;;;;;;13.08;2.58;;;;;;;29.12;49.32;100117.95;1724821;81;25942;-78
2021/06/21 08:32:33;;;;;;;10.40;3.02;;;;;;;29.10;47.04;100123.80;1749683;81;25965;-78
2021/06/21 08:35:00;;;;;;;20.43;2.80;;;;;;;29.11;47.24;100119.89;1725019;83;25750;-78
2021/06/21 08:37:27;;;;;;;10.88;2.62;;;;;;;29.13;48.04;100123.14;1749614;80;27538;-77
2021/06/21 08:39:54;;;;;;;16.45;3.37;;;;;;;29.22;48.46;100130.09;1725386;81;25964;-78
2021/06/21 08:42:22;;;;;;;10.63;2.67;;;;;;;29.30;47.77;100128.72;1724688;80;25879;-77
2021/06/21 08:44:49;;;;;;;17.02;2.80;;;;;;;29.39;48.16;100130.94;1724573;83;26178;-77
2021/06/21 08:47:19;;;;;;;14.70;2.80;;;;;;;29.48;48.22;100129.57;1722888;83;25754;-78
2021/06/21 08:49:49;;;;;;;14.18;2.58;;;;;;;29.55;45.84;100133.49;1724675;81;28471;-77
2021/06/21 08:52:18;;;;;;;10.63;2.50;;;;;;;29.56;46.12;100127.38;1749075;81;25625;-77
2021/06/21 08:54:47;;;;;;;9.93;2.25;;;;;;;29.55;45.50;100134.05;1723483;82;25743;-78
2021/06/21 08:57:14;;;;;;;18.82;3.47;;;;;;;29.57;45.84;100133.16;1725572;81;25902;-78
2021/06/21 08:59:42;;;;;;;17.37;2.65;;;;;;;29.58;45.07;100134.77;1725026;81;25886;-77
2021/06/21 09:02:12;;;;;;;16.02;4.25;;;;;;;29.64;46.10;100128.77;1749468;81;27509;-78
2021/06/21 09:04:40;;;;;;;17.55;3.02;;;;;;;29.73;45.47;100126.00;1723451;83;25744;-78
2021/06/21 09:07:20;;;;;;;14.43;2.42;;;;;;;29.74;44.52;100119.39;1700490;81;25940;-78
2021/06/21 09:09:49;;;;;;;10.93;2.58;;;;;;;29.76;44.71;100110.22;1724748;83;26392;-77
2021/06/21 09:12:31;;;;;;;14.98;2.30;;;;;;;29.81;44.83;100116.14;1749634;81;25351;-77
2021/06/21 09:15:02;;;;;;;14.68;2.85;;;;;;;29.86;45.02;100115.95;1727530;82;28235;-77
2021/06/21 09:17:30;;;;;;;16.77;2.87;;;;;;;29.91;44.01;100105.58;1706061;81;25777;-78
2021/06/21 09:20:00;;;;;;;9.85;2.52;;;;;;;29.90;44.67;100095.66;1729427;80;26612;-78
2021/06/21 09:22:43;;;;;;;17.52;2.47;;;;;;;29.96;44.19;100094.34;1754644;81;25799;-78
2021/06/21 09:25:23;;;;;;;10.20;2.30;;;;;;;30.02;44.10;100092.23;1728124;81;25765;-78
2021/06/21 09:28:03;;;;;;;16.73;3.20;;;;;;;30.05;43.74;100086.86;1727037;81;27497;-78
2021/06/21 09:30:33;;;;;;;10.97;2.43;;;;;;;30.03;44.30;100085.00;1728720;82;25912;-77
2021/06/21 09:33:01;;;;;;;11.80;2.47;;;;;;;30.11;44.45;100081.99;1754681;80;25846;-78
2021/06/21 09:35:34;;;;;;;16.30;2.90;;;;;;;30.19;43.84;100081.15;1727994;81;25951;-78
2021/06/21 09:38:07;;;;;;;12.53;3.22;;;;;;;30.23;43.71;100084.31;1729612;81;25287;-78
2021/06/21 09:40:42;;;;;;;13.68;2.50;;;;;;;30.29;42.94;100079.41;1754069;81;27494;-78
2021/06/21 09:43:32;;;;;;;7.80;2.10;;;;;;;30.33;43.45;100076.25;1699055;82;25926;-78
2021/06/21 09:46:18;;;;;;;15.93;2.45;;;;;;;30.37;42.12;100073.06;1727940;80;25868;-78
2021/06/21 09:48:52;;;;;;;12.88;2.55;;;;;;;30.42;42.33;100077.05;1729970;82;26383;-78
2021/06/21 09:51:35;;;;;;;18.27;2.47;;;;;;;30.44;42.13;100083.05;1728710;82;25998;-78
2021/06/21 09:54:12;;;;;;;13.10;2.95;;;;;;;30.50;41.60;100080.94;1755023;81;28180;-78
2021/06/21 09:56:45;;;;;;;14.87;2.35;;;;;;;30.54;41.24;100076.36;1727887;81;26058;-78
2021/06/21 09:59:35;;;;;;;11.63;2.87;;;;;;;30.56;41.88;100078.22;1754973;80;25745;-78
2021/06/21 10:02:05;;;;;;;10.60;2.45;;;;;;;30.60;41.60;100078.61;1752857;81;26212;-78
2021/06/21 10:04:38;;;;;;;11.90;2.62;;;;;;;30.67;40.53;100067.82;1755218;80;25964;-78
2021/06/21 10:07:08;;;;;;;13.28;2.52;;;;;;;30.75;40.27;100072.52;1728205;81;27509;-78
2021/06/21 10:09:41;;;;;;;11.48;2.40;;;;;;;30.83;40.70;100070.84;1703196;82;25854;-78
2021/06/21 10:12:20;;;;;;;10.53;2.17;;;;;;;30.94;41.11;100079.03;1726385;80;25920;-77
2021/06/21 10:14:47;;;;;;;17.65;2.37;;;;;;;31.00;39.54;100072.98;1775881;80;25770;-78
2021/06/21 10:17:14;;;;;;;11.88;2.10;;;;;;;31.01;38.68;100075.15;1753241;81;26481;-78
2021/06/21 10:19:41;;;;;;;15.35;2.45;;;;;;;31.04;39.97;100073.11;1730103;81;28187;-79
2021/06/21 10:22:09;;;;;;;10.38;2.08;;;;;;;31.10;39.08;100071.77;1754470;81;25882;-78
2021/06/21 10:24:36;;;;;;;10.88;2.05;;;;;;;31.11;39.79;100074.22;1780804;80;25733;-77
2021/06/21 10:27:06;;;;;;;12.33;2.10;;;;;;;31.11;38.55;100071.45;1753165;81;26916;-77
2021/06/21 10:29:36;;;;;;;12.82;2.40;;;;;;;31.15;39.13;100068.24;1730166;81;25903;-79
2021/06/21 10:32:09;;;;;;;11.27;2.00;;;;;;;31.20;38.57;100065.26;1754556;81;27103;-78
2021/06/21 10:34:37;;;;;;;6.62;1.72;;;;;;;31.27;39.71;100070.26;1780768;79;25875;-78
2021/06/21 10:37:12;;;;;;;10.75;2.22;;;;;;;31.35;38.53;100067.20;1753357;79;25791;-78
2021/06/21 10:39:47;;;;;;;10.28;3.42;;;;;;;31.42;39.20;100069.69;1780901;79;25777;-78
2021/06/21 10:42:21;;;;;;;12.75;1.92;;;;;;;31.46;39.28;100069.25;1729611;81;26406;-78
2021/06/21 10:44:56;;;;;;;6.47;1.47;;;;;;;31.54;37.83;100066.19;1780145;79;28175;-78
2021/06/21 10:47:44;;;;;;;7.97;2.12;;;;;;;31.56;37.91;100061.12;1752790;81;25788;-78
2021/06/21 10:50:22;;;;;;;7.12;2.25;;;;;;;31.60;37.32;100063.44;1729944;80;25816;-78
2021/06/21 10:52:55;;;;;;;11.57;2.75;;;;;;;31.66;37.50;100056.55;1752366;81;26473;-78
2021/06/21 10:55:32;;;;;;;11.15;2.10;;;;;;;31.76;37.58;100063.03;1781143;80;25853;-78
2021/06/21 10:58:10;;;;;;;8.35;1.55;;;;;;;31.81;36.94;100061.45;1753409;81;27453;-78
2021/06/21 11:00:44;;;;;;;9.38;2.33;;;;;;;31.83;36.82;100066.08;1754167;81;25937;-78
2021/06/21 11:03:34;;;;;;;8.45;1.82;;;;;;;31.83;36.79;100063.30;1754352;78;25899;-78
2021/06/21 11:06:24;;;;;;;9.80;2.35;;;;;;;31.85;37.05;100059.62;1780755;80;25770;-79
2021/06/21 11:08:54;;;;;;;10.88;2.45;;;;;;;31.87;36.13;100062.28;1754057;80;25894;-78
2021/06/21 11:11:43;;;;;;;10.15;2.22;;;;;;;31.88;37.25;100057.56;1682275;81;27510;-78
2021/06/21 11:14:15;;;;;;;8.95;1.98;;;;;;;31.94;36.88;100063.97;1763795;79;25833;-79
2021/06/21 11:16:46;;;;;;;9.08;2.27;;;;;;;31.97;36.61;100065.81;1723364;82;25373;-79
2021/06/21 11:19:24;;;;;;;10.72;2.27;;;;;;;31.99;36.88;100067.67;1723275;80;25921;-79
2021/06/21 11:22:02;;;;;;;12.82;2.52;;;;;;;32.01;37.78;100061.21;1709193;82;25967;-79
2021/06/21 11:24:48;;;;;;;9.48;2.60;;;;;;;32.07;37.60;100050.14;1700434;83;27463;-79
2021/06/21 11:27:22;;;;;;;7.47;2.27;;;;;;;32.15;37.69;100060.31;1723343;83;25928;-79
2021/06/21 11:29:53;;;;;;;15.20;3.25;;;;;;;32.23;37.79;100061.60;1723425;83;25787;-79
2021/06/21 11:32:22;;;;;;;6.58;2.20;;;;;;;32.26;37.08;100052.61;1710152;80;25857;-78
2021/06/21 11:35:01;;;;;;;7.67;1.92;;;;;;;32.27;37.52;100046.50;1723070;83;25797;-78
2021/06/21 11:37:52;;;;;;;7.05;2.20;;;;;;;32.35;37.13;100048.34;1722885;83;27143;-77